sensor_id;sensor_type;location;lat;lon;timestamp;temperature;humidity
24158;DHT22;12316;50.904;4.200;2022-08-01T00:01:55;21.90;99.90
24158;DHT22;12316;50.904;4.200;2022-08-01T00:04:20;21.90;99.90
24158;DHT22;12316;50.904;4.200;2022-08-01T00:06:46;21.90;99.90
24158;DHT22;12316;50.904;4.200;2022-08-01T00:09:12;22.00;99.90
24158;DHT22;12316;50.904;4.200;2022-08-01T00:11:37;21.80;99.90
24158;DHT22;12316;50.904;4.200;2022-08-01T00:14:03;21.90;99.90
24158;DHT22;12316;50.904;4.200;2022-08-01T00:16:29;21.90;99.90
24158;DHT22;12316;50.904;4.200;2022-08-01T00:18:54;21.90;99.90
24158;DHT22;12316;50.904;4.200;2022-08-01T00:21:20;21.90;99.90
24158;DHT22;12316;50.904;4.200;2022-08-01T00:23:46;21.90;99.90
24158;DHT22;12316;50.904;4.200;2022-08-01T00:26:13;21.80;99.90
24158;DHT22;12316;50.904;4.200;2022-08-01T00:28:38;21.80;99.90
24158;DHT22;12316;50.904;4.200;2022-08-01T00:31:04;21.80;99.90
24158;DHT22;12316;50.904;4.200;2022-08-01T00:33:31;21.80;99.90
24158;DHT22;12316;50.904;4.200;2022-08-01T00:35:57;21.70;99.90
24158;DHT22;12316;50.904;4.200;2022-08-01T00:38:23;21.70;99.90
24158;DHT22;12316;50.904;4.200;2022-08-01T00:40:49;21.60;99.90
24158;DHT22;12316;50.904;4.200;2022-08-01T00:43:14;21.60;99.90
24158;DHT22;12316;50.904;4.200;2022-08-01T00:45:40;21.60;99.90
24158;DHT22;12316;50.904;4.200;2022-08-01T00:48:06;21.50;99.90
24158;DHT22;12316;50.904;4.200;2022-08-01T00:50:32;21.50;99.90
24158;DHT22;12316;50.904;4.200;2022-08-01T00:52:59;21.50;99.90
24158;DHT22;12316;50.904;4.200;2022-08-01T00:55:27;21.50;99.90
24158;DHT22;12316;50.904;4.200;2022-08-01T00:57:52;21.50;99.90
24158;DHT22;12316;50.904;4.200;2022-08-01T01:00:19;21.40;99.90
24158;DHT22;12316;50.904;4.200;2022-08-01T01:02:45;21.40;99.90
24158;DHT22;12316;50.904;4.200;2022-08-01T01:05:11;21.40;99.90
24158;DHT22;12316;50.904;4.200;2022-08-01T01:07:48;21.40;99.90
24158;DHT22;12316;50.904;4.200;2022-08-01T01:10:20;21.40;99.90
24158;DHT22;12316;50.904;4.200;2022-08-01T01:12:57;21.40;99.90
24158;DHT22;12316;50.904;4.200;2022-08-01T01:15:34;21.40;99.90
24158;DHT22;12316;50.904;4.200;2022-08-01T01:18:05;21.30;99.90
24158;DHT22;12316;50.904;4.200;2022-08-01T01:20:37;21.30;99.90
24158;DHT22;12316;50.904;4.200;2022-08-01T01:26:21;21.30;99.90
24158;DHT22;12316;50.904;4.200;2022-08-01T01:29:08;21.20;99.90
24158;DHT22;12316;50.904;4.200;2022-08-01T01:31:52;21.30;99.90
24158;DHT22;12316;50.904;4.200;2022-08-01T01:34:20;21.30;99.90
24158;DHT22;12316;50.904;4.200;2022-08-01T01:36:48;21.30;99.90
24158;DHT22;12316;50.904;4.200;2022-08-01T01:39:15;21.30;99.90
24158;DHT22;12316;50.904;4.200;2022-08-01T01:41:43;21.30;99.90
24158;DHT22;12316;50.904;4.200;2022-08-01T01:44:10;21.30;99.90
24158;DHT22;12316;50.904;4.200;2022-08-01T01:46:36;21.30;99.90
24158;DHT22;12316;50.904;4.200;2022-08-01T01:49:03;21.30;99.90
24158;DHT22;12316;50.904;4.200;2022-08-01T01:51:30;21.40;99.90
24158;DHT22;12316;50.904;4.200;2022-08-01T01:53:56;21.40;99.90
24158;DHT22;12316;50.904;4.200;2022-08-01T01:56:24;21.40;99.90
24158;DHT22;12316;50.904;4.200;2022-08-01T01:58:59;21.50;99.90
24158;DHT22;12316;50.904;4.200;2022-08-01T02:01:28;21.40;99.90
24158;DHT22;12316;50.904;4.200;2022-08-01T02:03:56;21.50;99.90
24158;DHT22;12316;50.904;4.200;2022-08-01T02:06:24;21.50;99.90
24158;DHT22;12316;50.904;4.200;2022-08-01T02:08:53;21.60;99.90
24158;DHT22;12316;50.904;4.200;2022-08-01T02:11:22;21.50;99.90
24158;DHT22;12316;50.904;4.200;2022-08-01T02:13:59;21.50;99.90
24158;DHT22;12316;50.904;4.200;2022-08-01T02:16:29;21.50;99.90
24158;DHT22;12316;50.904;4.200;2022-08-01T02:18:58;21.50;99.90
24158;DHT22;12316;50.904;4.200;2022-08-01T02:21:30;21.50;99.90
24158;DHT22;12316;50.904;4.200;2022-08-01T02:24:16;21.50;99.90
24158;DHT22;12316;50.904;4.200;2022-08-01T02:26:47;21.40;99.90
24158;DHT22;12316;50.904;4.200;2022-08-01T02:29:19;21.40;99.90
24158;DHT22;12316;50.904;4.200;2022-08-01T02:31:46;21.40;99.90
24158;DHT22;12316;50.904;4.200;2022-08-01T02:34:16;21.40;99.90
24158;DHT22;12316;50.904;4.200;2022-08-01T02:36:44;21.30;99.90
24158;DHT22;12316;50.904;4.200;2022-08-01T02:39:13;21.30;99.90
24158;DHT22;12316;50.904;4.200;2022-08-01T02:41:43;21.40;99.90
24158;DHT22;12316;50.904;4.200;2022-08-01T02:44:10;21.40;99.90
24158;DHT22;12316;50.904;4.200;2022-08-01T02:46:39;21.30;99.90
24158;DHT22;12316;50.904;4.200;2022-08-01T02:49:08;21.40;99.90
24158;DHT22;12316;50.904;4.200;2022-08-01T02:51:35;21.40;99.90
24158;DHT22;12316;50.904;4.200;2022-08-01T02:54:02;21.40;99.90
24158;DHT22;12316;50.904;4.200;2022-08-01T02:56:31;21.40;99.90
24158;DHT22;12316;50.904;4.200;2022-08-01T02:59:06;21.20;99.90
24158;DHT22;12316;50.904;4.200;2022-08-01T03:01:34;21.20;99.90
24158;DHT22;12316;50.904;4.200;2022-08-01T03:04:01;21.10;99.90
24158;DHT22;12316;50.904;4.200;2022-08-01T03:06:28;21.00;99.90
24158;DHT22;12316;50.904;4.200;2022-08-01T03:08:55;21.00;99.90
24158;DHT22;12316;50.904;4.200;2022-08-01T03:11:22;21.00;99.90
24158;DHT22;12316;50.904;4.200;2022-08-01T03:13:50;20.90;99.90
24158;DHT22;12316;50.904;4.200;2022-08-01T03:16:18;20.90;99.90
24158;DHT22;12316;50.904;4.200;2022-08-01T03:18:45;20.90;99.90
24158;DHT22;12316;50.904;4.200;2022-08-01T03:21:12;20.90;99.90
24158;DHT22;12316;50.904;4.200;2022-08-01T03:23:40;20.90;99.90
24158;DHT22;12316;50.904;4.200;2022-08-01T03:26:07;20.80;99.90
24158;DHT22;12316;50.904;4.200;2022-08-01T03:28:33;20.90;99.90
24158;DHT22;12316;50.904;4.200;2022-08-01T03:31:00;20.90;99.90
24158;DHT22;12316;50.904;4.200;2022-08-01T03:33:26;20.90;99.90
24158;DHT22;12316;50.904;4.200;2022-08-01T03:35:54;20.90;99.90
24158;DHT22;12316;50.904;4.200;2022-08-01T03:38:23;20.90;99.90
24158;DHT22;12316;50.904;4.200;2022-08-01T03:40:53;20.90;99.90
24158;DHT22;12316;50.904;4.200;2022-08-01T03:43:33;20.90;99.90
24158;DHT22;12316;50.904;4.200;2022-08-01T03:46:05;20.90;99.90
24158;DHT22;12316;50.904;4.200;2022-08-01T03:48:36;20.70;99.90
24158;DHT22;12316;50.904;4.200;2022-08-01T03:51:05;20.60;99.90
24158;DHT22;12316;50.904;4.200;2022-08-01T03:53:33;20.60;99.90
24158;DHT22;12316;50.904;4.200;2022-08-01T03:56:02;20.50;99.90
24158;DHT22;12316;50.904;4.200;2022-08-01T03:58:29;20.40;99.90
24158;DHT22;12316;50.904;4.200;2022-08-01T04:00:55;20.50;99.90
24158;DHT22;12316;50.904;4.200;2022-08-01T04:03:23;20.40;99.90
24158;DHT22;12316;50.904;4.200;2022-08-01T04:05:49;20.50;99.90
24158;DHT22;12316;50.904;4.200;2022-08-01T04:08:15;20.40;99.90
24158;DHT22;12316;50.904;4.200;2022-08-01T04:10:41;20.40;99.90
24158;DHT22;12316;50.904;4.200;2022-08-01T04:13:08;20.50;99.90
24158;DHT22;12316;50.904;4.200;2022-08-01T04:15:33;20.60;99.90
24158;DHT22;12316;50.904;4.200;2022-08-01T04:17:59;20.50;99.90
24158;DHT22;12316;50.904;4.200;2022-08-01T04:20:24;20.60;99.90
24158;DHT22;12316;50.904;4.200;2022-08-01T04:22:50;20.60;99.90
24158;DHT22;12316;50.904;4.200;2022-08-01T04:25:28;20.60;99.90
24158;DHT22;12316;50.904;4.200;2022-08-01T04:27:57;20.70;99.90
24158;DHT22;12316;50.904;4.200;2022-08-01T04:30:26;20.70;99.90
24158;DHT22;12316;50.904;4.200;2022-08-01T04:32:55;20.70;99.90
24158;DHT22;12316;50.904;4.200;2022-08-01T04:35:24;20.70;99.90
24158;DHT22;12316;50.904;4.200;2022-08-01T04:37:51;20.70;99.90
24158;DHT22;12316;50.904;4.200;2022-08-01T04:40:17;20.70;99.90
24158;DHT22;12316;50.904;4.200;2022-08-01T04:42:47;20.80;99.90
24158;DHT22;12316;50.904;4.200;2022-08-01T04:45:14;20.80;99.90
24158;DHT22;12316;50.904;4.200;2022-08-01T04:47:40;20.80;99.90
24158;DHT22;12316;50.904;4.200;2022-08-01T04:50:08;20.80;99.90
24158;DHT22;12316;50.904;4.200;2022-08-01T04:52:35;20.90;99.90
24158;DHT22;12316;50.904;4.200;2022-08-01T04:55:03;20.90;99.90
24158;DHT22;12316;50.904;4.200;2022-08-01T04:57:29;20.90;99.90
24158;DHT22;12316;50.904;4.200;2022-08-01T04:59:55;20.90;99.90
24158;DHT22;12316;50.904;4.200;2022-08-01T05:02:22;21.00;99.90
24158;DHT22;12316;50.904;4.200;2022-08-01T05:04:48;20.90;99.90
24158;DHT22;12316;50.904;4.200;2022-08-01T05:07:14;20.90;99.90
24158;DHT22;12316;50.904;4.200;2022-08-01T05:09:41;21.00;99.90
24158;DHT22;12316;50.904;4.200;2022-08-01T05:12:08;20.90;99.90
24158;DHT22;12316;50.904;4.200;2022-08-01T05:14:34;20.90;99.90
24158;DHT22;12316;50.904;4.200;2022-08-01T05:17:01;20.90;99.90
24158;DHT22;12316;50.904;4.200;2022-08-01T05:19:29;20.90;99.90
24158;DHT22;12316;50.904;4.200;2022-08-01T05:21:56;20.90;99.90
24158;DHT22;12316;50.904;4.200;2022-08-01T05:24:21;20.90;99.90
24158;DHT22;12316;50.904;4.200;2022-08-01T05:26:47;21.00;99.90
24158;DHT22;12316;50.904;4.200;2022-08-01T05:29:14;21.00;99.90
24158;DHT22;12316;50.904;4.200;2022-08-01T05:31:40;21.10;99.90
24158;DHT22;12316;50.904;4.200;2022-08-01T05:34:05;21.10;99.90
24158;DHT22;12316;50.904;4.200;2022-08-01T05:36:31;21.20;99.90
24158;DHT22;12316;50.904;4.200;2022-08-01T05:38:58;21.30;99.90
24158;DHT22;12316;50.904;4.200;2022-08-01T05:41:23;21.40;99.90
24158;DHT22;12316;50.904;4.200;2022-08-01T05:43:49;21.50;99.90
24158;DHT22;12316;50.904;4.200;2022-08-01T05:46:15;21.60;99.90
24158;DHT22;12316;50.904;4.200;2022-08-01T05:48:40;21.60;99.90
24158;DHT22;12316;50.904;4.200;2022-08-01T05:51:06;21.60;99.90
24158;DHT22;12316;50.904;4.200;2022-08-01T05:53:31;21.60;99.90
24158;DHT22;12316;50.904;4.200;2022-08-01T05:56:00;21.60;99.90
24158;DHT22;12316;50.904;4.200;2022-08-01T05:58:26;21.60;99.90
24158;DHT22;12316;50.904;4.200;2022-08-01T06:00:52;21.70;99.90
24158;DHT22;12316;50.904;4.200;2022-08-01T06:03:18;21.70;99.90
24158;DHT22;12316;50.904;4.200;2022-08-01T06:05:43;21.80;99.90
24158;DHT22;12316;50.904;4.200;2022-08-01T06:08:09;21.80;99.90
24158;DHT22;12316;50.904;4.200;2022-08-01T06:10:34;21.90;99.90
24158;DHT22;12316;50.904;4.200;2022-08-01T06:13:00;21.90;99.90
24158;DHT22;12316;50.904;4.200;2022-08-01T06:15:28;21.90;99.90
24158;DHT22;12316;50.904;4.200;2022-08-01T06:17:54;22.00;99.90
24158;DHT22;12316;50.904;4.200;2022-08-01T06:20:20;21.90;99.90
24158;DHT22;12316;50.904;4.200;2022-08-01T06:22:46;22.00;99.90
24158;DHT22;12316;50.904;4.200;2022-08-01T06:25:12;21.90;99.90
24158;DHT22;12316;50.904;4.200;2022-08-01T06:27:37;21.80;99.90
24158;DHT22;12316;50.904;4.200;2022-08-01T06:30:04;21.90;99.90
24158;DHT22;12316;50.904;4.200;2022-08-01T06:32:30;21.90;99.90
24158;DHT22;12316;50.904;4.200;2022-08-01T06:34:58;21.90;99.90
24158;DHT22;12316;50.904;4.200;2022-08-01T06:37:31;21.90;99.90
24158;DHT22;12316;50.904;4.200;2022-08-01T06:40:00;21.90;99.90
24158;DHT22;12316;50.904;4.200;2022-08-01T06:42:26;22.10;99.90
24158;DHT22;12316;50.904;4.200;2022-08-01T06:44:52;22.30;99.90
24158;DHT22;12316;50.904;4.200;2022-08-01T06:47:17;22.40;99.90
24158;DHT22;12316;50.904;4.200;2022-08-01T06:49:43;22.40;99.90
24158;DHT22;12316;50.904;4.200;2022-08-01T06:52:08;22.50;99.90
24158;DHT22;12316;50.904;4.200;2022-08-01T06:54:34;22.60;99.90
24158;DHT22;12316;50.904;4.200;2022-08-01T06:56:59;22.80;99.90
24158;DHT22;12316;50.904;4.200;2022-08-01T06:59:25;23.00;99.90
24158;DHT22;12316;50.904;4.200;2022-08-01T07:01:51;23.00;99.90
24158;DHT22;12316;50.904;4.200;2022-08-01T07:04:18;23.00;99.90
24158;DHT22;12316;50.904;4.200;2022-08-01T07:06:44;23.10;99.90
24158;DHT22;12316;50.904;4.200;2022-08-01T07:09:09;23.30;99.90
24158;DHT22;12316;50.904;4.200;2022-08-01T07:11:35;23.40;99.90
24158;DHT22;12316;50.904;4.200;2022-08-01T07:14:00;23.30;99.90
24158;DHT22;12316;50.904;4.200;2022-08-01T07:16:26;23.40;99.90
24158;DHT22;12316;50.904;4.200;2022-08-01T07:18:51;23.40;99.90
24158;DHT22;12316;50.904;4.200;2022-08-01T07:21:17;23.30;99.90
24158;DHT22;12316;50.904;4.200;2022-08-01T07:23:43;23.30;99.90
24158;DHT22;12316;50.904;4.200;2022-08-01T07:26:08;23.30;99.90
24158;DHT22;12316;50.904;4.200;2022-08-01T07:28:34;23.30;99.90
24158;DHT22;12316;50.904;4.200;2022-08-01T07:31:00;23.30;99.90
24158;DHT22;12316;50.904;4.200;2022-08-01T07:33:25;23.50;99.90
24158;DHT22;12316;50.904;4.200;2022-08-01T07:35:51;23.60;99.90
24158;DHT22;12316;50.904;4.200;2022-08-01T07:38:16;23.60;99.90
24158;DHT22;12316;50.904;4.200;2022-08-01T07:40:43;23.70;99.90
24158;DHT22;12316;50.904;4.200;2022-08-01T07:43:09;23.60;99.90
24158;DHT22;12316;50.904;4.200;2022-08-01T07:45:35;23.50;99.90
24158;DHT22;12316;50.904;4.200;2022-08-01T07:48:07;23.40;99.90
24158;DHT22;12316;50.904;4.200;2022-08-01T07:50:33;23.20;99.90
24158;DHT22;12316;50.904;4.200;2022-08-01T07:52:59;23.20;99.90
24158;DHT22;12316;50.904;4.200;2022-08-01T07:55:25;23.10;99.90
24158;DHT22;12316;50.904;4.200;2022-08-01T07:57:51;23.20;99.90
24158;DHT22;12316;50.904;4.200;2022-08-01T08:00:17;23.30;99.90
24158;DHT22;12316;50.904;4.200;2022-08-01T08:02:43;23.50;99.90
24158;DHT22;12316;50.904;4.200;2022-08-01T08:05:11;23.70;99.90
24158;DHT22;12316;50.904;4.200;2022-08-01T08:07:37;23.90;99.90
24158;DHT22;12316;50.904;4.200;2022-08-01T08:10:03;24.20;99.90
24158;DHT22;12316;50.904;4.200;2022-08-01T08:12:33;24.50;99.90
24158;DHT22;12316;50.904;4.200;2022-08-01T08:14:58;24.80;99.90
24158;DHT22;12316;50.904;4.200;2022-08-01T08:17:25;25.20;99.80
24158;DHT22;12316;50.904;4.200;2022-08-01T08:19:51;25.40;99.10
24158;DHT22;12316;50.904;4.200;2022-08-01T08:22:17;25.50;98.50
24158;DHT22;12316;50.904;4.200;2022-08-01T08:24:43;25.60;98.80
24158;DHT22;12316;50.904;4.200;2022-08-01T08:27:09;25.50;98.40
24158;DHT22;12316;50.904;4.200;2022-08-01T08:29:35;25.10;98.80
24158;DHT22;12316;50.904;4.200;2022-08-01T08:32:01;25.00;99.40
24158;DHT22;12316;50.904;4.200;2022-08-01T08:34:27;25.00;99.70
24158;DHT22;12316;50.904;4.200;2022-08-01T08:36:54;24.70;99.90
24158;DHT22;12316;50.904;4.200;2022-08-01T08:39:22;24.50;99.90
24158;DHT22;12316;50.904;4.200;2022-08-01T08:41:48;24.60;99.90
24158;DHT22;12316;50.904;4.200;2022-08-01T08:44:14;24.60;99.90
24158;DHT22;12316;50.904;4.200;2022-08-01T08:46:46;24.70;99.90
24158;DHT22;12316;50.904;4.200;2022-08-01T08:49:18;24.80;99.90
24158;DHT22;12316;50.904;4.200;2022-08-01T08:51:48;24.80;99.90
24158;DHT22;12316;50.904;4.200;2022-08-01T08:54:14;24.90;99.50
24158;DHT22;12316;50.904;4.200;2022-08-01T08:56:41;25.10;99.70
24158;DHT22;12316;50.904;4.200;2022-08-01T08:59:07;25.30;99.50
24158;DHT22;12316;50.904;4.200;2022-08-01T09:01:33;25.20;98.60
24158;DHT22;12316;50.904;4.200;2022-08-01T09:04:01;25.30;98.40
24158;DHT22;12316;50.904;4.200;2022-08-01T09:06:28;25.00;97.70
24158;DHT22;12316;50.904;4.200;2022-08-01T09:08:56;24.90;98.00
24158;DHT22;12316;50.904;4.200;2022-08-01T09:11:22;24.60;98.30
24158;DHT22;12316;50.904;4.200;2022-08-01T09:14:08;24.70;98.70
24158;DHT22;12316;50.904;4.200;2022-08-01T09:16:35;24.90;98.60
24158;DHT22;12316;50.904;4.200;2022-08-01T09:19:18;24.90;96.50
24158;DHT22;12316;50.904;4.200;2022-08-01T09:21:58;24.90;96.90
24158;DHT22;12316;50.904;4.200;2022-08-01T09:24:25;24.90;97.00
24158;DHT22;12316;50.904;4.200;2022-08-01T09:26:52;25.00;96.70
24158;DHT22;12316;50.904;4.200;2022-08-01T09:29:26;25.00;96.60
24158;DHT22;12316;50.904;4.200;2022-08-01T09:31:52;24.80;96.60
24158;DHT22;12316;50.904;4.200;2022-08-01T09:34:28;24.70;96.60
24158;DHT22;12316;50.904;4.200;2022-08-01T09:36:57;24.70;96.40
24158;DHT22;12316;50.904;4.200;2022-08-01T09:39:29;24.80;97.10
24158;DHT22;12316;50.904;4.200;2022-08-01T09:41:56;25.00;96.30
24158;DHT22;12316;50.904;4.200;2022-08-01T09:44:42;25.00;95.20
24158;DHT22;12316;50.904;4.200;2022-08-01T09:47:08;25.10;95.10
24158;DHT22;12316;50.904;4.200;2022-08-01T09:49:36;25.40;94.60
24158;DHT22;12316;50.904;4.200;2022-08-01T09:52:16;25.70;94.40
24158;DHT22;12316;50.904;4.200;2022-08-01T09:54:44;25.70;94.20
24158;DHT22;12316;50.904;4.200;2022-08-01T09:57:18;25.70;93.40
24158;DHT22;12316;50.904;4.200;2022-08-01T09:59:46;25.70;93.50
24158;DHT22;12316;50.904;4.200;2022-08-01T10:02:13;25.90;93.60
24158;DHT22;12316;50.904;4.200;2022-08-01T10:04:49;26.00;93.20
24158;DHT22;12316;50.904;4.200;2022-08-01T10:07:15;26.10;93.20
24158;DHT22;12316;50.904;4.200;2022-08-01T10:09:44;26.20;92.60
24158;DHT22;12316;50.904;4.200;2022-08-01T10:12:12;26.40;92.80
24158;DHT22;12316;50.904;4.200;2022-08-01T10:14:38;26.50;92.60
24158;DHT22;12316;50.904;4.200;2022-08-01T10:17:08;26.60;92.70
24158;DHT22;12316;50.904;4.200;2022-08-01T10:19:35;26.90;92.80
24158;DHT22;12316;50.904;4.200;2022-08-01T10:22:06;27.30;92.60
24158;DHT22;12316;50.904;4.200;2022-08-01T10:24:36;27.50;91.90
24158;DHT22;12316;50.904;4.200;2022-08-01T10:27:05;27.60;91.90
24158;DHT22;12316;50.904;4.200;2022-08-01T10:30:00;27.40;90.70
24158;DHT22;12316;50.904;4.200;2022-08-01T10:32:32;27.50;90.60
24158;DHT22;12316;50.904;4.200;2022-08-01T10:34:59;27.70;90.80
24158;DHT22;12316;50.904;4.200;2022-08-01T10:37:25;27.80;89.30
24158;DHT22;12316;50.904;4.200;2022-08-01T10:39:51;27.80;89.00
24158;DHT22;12316;50.904;4.200;2022-08-01T10:42:18;27.60;89.20
24158;DHT22;12316;50.904;4.200;2022-08-01T10:44:44;27.70;89.90
24158;DHT22;12316;50.904;4.200;2022-08-01T10:47:14;28.00;89.00
24158;DHT22;12316;50.904;4.200;2022-08-01T10:49:56;27.90;88.20
24158;DHT22;12316;50.904;4.200;2022-08-01T10:52:25;28.00;88.90
24158;DHT22;12316;50.904;4.200;2022-08-01T10:55:03;27.80;88.20
24158;DHT22;12316;50.904;4.200;2022-08-01T11:00:08;27.40;89.80
24158;DHT22;12316;50.904;4.200;2022-08-01T11:02:34;27.20;90.30
24158;DHT22;12316;50.904;4.200;2022-08-01T11:05:19;27.10;90.60
24158;DHT22;12316;50.904;4.200;2022-08-01T11:07:51;27.00;90.60
24158;DHT22;12316;50.904;4.200;2022-08-01T11:10:39;27.20;90.80
24158;DHT22;12316;50.904;4.200;2022-08-01T11:13:06;27.50;90.50
24158;DHT22;12316;50.904;4.200;2022-08-01T11:15:37;27.50;89.30
24158;DHT22;12316;50.904;4.200;2022-08-01T11:20:58;27.90;88.60
24158;DHT22;12316;50.904;4.200;2022-08-01T11:23:26;28.10;85.80
24158;DHT22;12316;50.904;4.200;2022-08-01T11:28:24;28.40;87.60
24158;DHT22;12316;50.904;4.200;2022-08-01T11:30:55;28.50;86.60
24158;DHT22;12316;50.904;4.200;2022-08-01T11:38:43;29.10;85.20
24158;DHT22;12316;50.904;4.200;2022-08-01T11:41:16;29.10;84.40
24158;DHT22;12316;50.904;4.200;2022-08-01T11:44:03;29.20;84.10
24158;DHT22;12316;50.904;4.200;2022-08-01T11:46:59;29.30;84.10
24158;DHT22;12316;50.904;4.200;2022-08-01T11:49:27;29.30;83.10
24158;DHT22;12316;50.904;4.200;2022-08-01T11:52:05;29.10;82.30
24158;DHT22;12316;50.904;4.200;2022-08-01T11:54:40;28.90;83.10
24158;DHT22;12316;50.904;4.200;2022-08-01T11:57:12;28.60;83.80
24158;DHT22;12316;50.904;4.200;2022-08-01T11:59:49;28.50;84.10
24158;DHT22;12316;50.904;4.200;2022-08-01T12:02:32;28.50;85.10
24158;DHT22;12316;50.904;4.200;2022-08-01T12:05:04;28.20;84.90
24158;DHT22;12316;50.904;4.200;2022-08-01T12:07:32;28.00;85.10
24158;DHT22;12316;50.904;4.200;2022-08-01T12:12:24;28.00;82.40
24158;DHT22;12316;50.904;4.200;2022-08-01T12:14:56;28.00;80.20
24158;DHT22;12316;50.904;4.200;2022-08-01T12:17:34;28.00;81.40
24158;DHT22;12316;50.904;4.200;2022-08-01T12:20:00;28.30;82.80
24158;DHT22;12316;50.904;4.200;2022-08-01T12:22:26;28.50;83.30
24158;DHT22;12316;50.904;4.200;2022-08-01T12:24:52;28.70;82.00
24158;DHT22;12316;50.904;4.200;2022-08-01T12:27:28;28.90;83.20
24158;DHT22;12316;50.904;4.200;2022-08-01T12:29:56;29.00;81.70
24158;DHT22;12316;50.904;4.200;2022-08-01T12:32:28;29.00;81.60
24158;DHT22;12316;50.904;4.200;2022-08-01T12:34:54;28.70;79.50
24158;DHT22;12316;50.904;4.200;2022-08-01T12:37:21;28.30;81.30
24158;DHT22;12316;50.904;4.200;2022-08-01T12:39:47;28.20;81.30
24158;DHT22;12316;50.904;4.200;2022-08-01T12:42:14;28.30;82.00
24158;DHT22;12316;50.904;4.200;2022-08-01T12:44:41;28.50;81.80
24158;DHT22;12316;50.904;4.200;2022-08-01T12:47:08;28.60;82.20
24158;DHT22;12316;50.904;4.200;2022-08-01T12:49:36;28.60;82.70
24158;DHT22;12316;50.904;4.200;2022-08-01T12:52:02;28.30;82.50
24158;DHT22;12316;50.904;4.200;2022-08-01T12:54:28;28.20;82.30
24158;DHT22;12316;50.904;4.200;2022-08-01T12:56:54;28.00;81.50
24158;DHT22;12316;50.904;4.200;2022-08-01T12:59:25;28.30;81.80
24158;DHT22;12316;50.904;4.200;2022-08-01T13:01:54;28.50;80.60
24158;DHT22;12316;50.904;4.200;2022-08-01T13:04:21;28.60;79.20
24158;DHT22;12316;50.904;4.200;2022-08-01T13:06:48;28.40;79.20
24158;DHT22;12316;50.904;4.200;2022-08-01T13:09:18;28.30;79.50
24158;DHT22;12316;50.904;4.200;2022-08-01T13:11:44;28.10;78.70
24158;DHT22;12316;50.904;4.200;2022-08-01T13:14:27;28.00;78.70
24158;DHT22;12316;50.904;4.200;2022-08-01T13:16:52;28.10;79.10
24158;DHT22;12316;50.904;4.200;2022-08-01T13:19:18;28.10;79.20
24158;DHT22;12316;50.904;4.200;2022-08-01T13:21:54;28.20;78.90
24158;DHT22;12316;50.904;4.200;2022-08-01T13:24:29;27.70;78.50
24158;DHT22;12316;50.904;4.200;2022-08-01T13:27:02;27.60;78.40
24158;DHT22;12316;50.904;4.200;2022-08-01T13:29:36;27.50;77.90
24158;DHT22;12316;50.904;4.200;2022-08-01T13:32:13;27.50;78.90
24158;DHT22;12316;50.904;4.200;2022-08-01T13:34:39;27.40;79.00
24158;DHT22;12316;50.904;4.200;2022-08-01T13:37:04;27.30;79.00
24158;DHT22;12316;50.904;4.200;2022-08-01T13:39:31;27.30;77.90
24158;DHT22;12316;50.904;4.200;2022-08-01T13:42:07;27.50;78.00
24158;DHT22;12316;50.904;4.200;2022-08-01T13:44:33;27.60;78.20
24158;DHT22;12316;50.904;4.200;2022-08-01T13:46:59;27.80;78.90
24158;DHT22;12316;50.904;4.200;2022-08-01T13:49:24;27.80;78.90
24158;DHT22;12316;50.904;4.200;2022-08-01T13:51:50;27.70;78.00
24158;DHT22;12316;50.904;4.200;2022-08-01T13:54:17;27.80;78.90
24158;DHT22;12316;50.904;4.200;2022-08-01T13:56:42;27.90;78.70
24158;DHT22;12316;50.904;4.200;2022-08-01T13:59:08;28.00;76.70
24158;DHT22;12316;50.904;4.200;2022-08-01T14:01:36;28.00;75.90
24158;DHT22;12316;50.904;4.200;2022-08-01T14:04:02;27.90;75.90
24158;DHT22;12316;50.904;4.200;2022-08-01T14:06:28;28.00;75.20
24158;DHT22;12316;50.904;4.200;2022-08-01T14:08:54;28.10;75.80
24158;DHT22;12316;50.904;4.200;2022-08-01T14:11:20;28.20;76.70
24158;DHT22;12316;50.904;4.200;2022-08-01T14:13:46;28.20;75.30
24158;DHT22;12316;50.904;4.200;2022-08-01T14:16:12;28.40;75.30
24158;DHT22;12316;50.904;4.200;2022-08-01T14:18:37;28.10;75.20
24158;DHT22;12316;50.904;4.200;2022-08-01T14:21:03;28.30;75.80
24158;DHT22;12316;50.904;4.200;2022-08-01T14:23:28;28.40;75.50
24158;DHT22;12316;50.904;4.200;2022-08-01T14:25:54;28.50;75.40
24158;DHT22;12316;50.904;4.200;2022-08-01T14:28:20;28.40;74.70
24158;DHT22;12316;50.904;4.200;2022-08-01T14:30:46;28.40;74.50
24158;DHT22;12316;50.904;4.200;2022-08-01T14:33:13;28.30;75.30
24158;DHT22;12316;50.904;4.200;2022-08-01T14:35:39;28.50;74.70
24158;DHT22;12316;50.904;4.200;2022-08-01T14:38:05;28.40;74.60
24158;DHT22;12316;50.904;4.200;2022-08-01T14:40:31;28.40;74.00
24158;DHT22;12316;50.904;4.200;2022-08-01T14:42:57;28.30;73.70
24158;DHT22;12316;50.904;4.200;2022-08-01T14:45:22;28.10;73.40
24158;DHT22;12316;50.904;4.200;2022-08-01T14:47:48;28.00;73.90
24158;DHT22;12316;50.904;4.200;2022-08-01T14:50:15;28.00;74.90
24158;DHT22;12316;50.904;4.200;2022-08-01T14:52:42;27.90;73.90
24158;DHT22;12316;50.904;4.200;2022-08-01T14:55:10;27.80;74.00
24158;DHT22;12316;50.904;4.200;2022-08-01T14:57:38;27.70;74.10
24158;DHT22;12316;50.904;4.200;2022-08-01T15:00:07;27.60;75.00
24158;DHT22;12316;50.904;4.200;2022-08-01T15:02:35;27.50;75.60
24158;DHT22;12316;50.904;4.200;2022-08-01T15:05:01;27.60;74.70
24158;DHT22;12316;50.904;4.200;2022-08-01T15:07:27;27.80;74.30
24158;DHT22;12316;50.904;4.200;2022-08-01T15:09:53;27.90;73.90
24158;DHT22;12316;50.904;4.200;2022-08-01T15:12:18;27.90;73.80
24158;DHT22;12316;50.904;4.200;2022-08-01T15:14:44;27.60;74.10
24158;DHT22;12316;50.904;4.200;2022-08-01T15:17:13;27.60;73.70
24158;DHT22;12316;50.904;4.200;2022-08-01T15:19:39;27.60;73.20
24158;DHT22;12316;50.904;4.200;2022-08-01T15:22:04;27.60;73.70
24158;DHT22;12316;50.904;4.200;2022-08-01T15:24:31;27.70;74.00
24158;DHT22;12316;50.904;4.200;2022-08-01T15:26:56;27.80;73.70
24158;DHT22;12316;50.904;4.200;2022-08-01T15:29:22;27.90;73.80
24158;DHT22;12316;50.904;4.200;2022-08-01T15:31:48;28.00;74.70
24158;DHT22;12316;50.904;4.200;2022-08-01T15:34:13;28.20;73.10
24158;DHT22;12316;50.904;4.200;2022-08-01T15:36:39;28.30;73.10
24158;DHT22;12316;50.904;4.200;2022-08-01T15:39:05;28.30;72.60
24158;DHT22;12316;50.904;4.200;2022-08-01T15:41:30;28.30;72.70
24158;DHT22;12316;50.904;4.200;2022-08-01T15:43:57;28.30;72.30
24158;DHT22;12316;50.904;4.200;2022-08-01T15:46:23;28.20;72.10
24158;DHT22;12316;50.904;4.200;2022-08-01T15:48:49;28.10;72.10
24158;DHT22;12316;50.904;4.200;2022-08-01T15:51:14;28.10;71.50
24158;DHT22;12316;50.904;4.200;2022-08-01T15:53:40;28.00;71.90
24158;DHT22;12316;50.904;4.200;2022-08-01T15:56:07;28.00;70.60